Time;durP1;ratioP1;P1;durP2;ratioP2;P2;SDS_P1;SDS_P2;PMS_P1;PMS_P2;Temp;Humidity;BMP_temperature;BMP_pressure;BME280_temperature;BME280_humidity;BME280_pressure;Samples;Min_cycle;Max_cycle;Signal;HPM_P1;HPM_P2
2023/01/22 00:00:12;;;;;;;43.28;23.75;;;;;;;0.90;70.59;102691.97;5052292;28;20057;-74
2023/01/22 00:02:39;;;;;;;40.92;22.33;;;;;;;1.25;70.70;102675.59;5053546;28;20052;-75
2023/01/22 00:05:07;;;;;;;45.05;21.92;;;;;;;1.05;69.06;102675.53;5055996;28;20045;-70
2023/01/22 00:07:34;;;;;;;41.25;23.17;;;;;;;1.12;69.36;102679.09;5066340;28;20433;-70
2023/01/22 00:10:01;;;;;;;41.00;22.63;;;;;;;0.90;68.74;102674.84;5057128;28;20069;-70
2023/01/22 00:12:29;;;;;;;45.47;24.23;;;;;;;0.93;69.34;102671.72;5058579;28;20052;-70
2023/01/22 00:14:56;;;;;;;43.03;23.52;;;;;;;0.73;69.50;102665.38;5059824;28;20059;-69
2023/01/22 00:17:23;;;;;;;44.85;22.63;;;;;;;0.77;69.80;102658.50;5061610;28;20048;-70
2023/01/22 00:19:51;;;;;;;43.35;23.70;;;;;;;0.90;69.34;102666.72;5043028;28;20063;-69
2023/01/22 00:22:18;;;;;;;40.10;23.08;;;;;;;0.78;69.38;102673.75;5059898;28;20413;-71
2023/01/22 00:24:45;;;;;;;40.28;22.92;;;;;;;0.68;69.93;102665.16;5064813;28;20458;-73
2023/01/22 00:27:13;;;;;;;46.08;24.55;;;;;;;0.50;70.83;102664.84;5063022;28;20431;-73
2023/01/22 00:29:40;;;;;;;43.30;23.35;;;;;;;0.57;71.00;102665.72;5044330;28;20622;-73
2023/01/22 00:32:07;;;;;;;49.25;24.63;;;;;;;0.66;70.54;102657.19;5065520;28;20059;-71
2023/01/22 00:34:35;;;;;;;47.28;24.92;;;;;;;0.39;71.41;102662.69;5076764;28;20047;-70
2023/01/22 00:37:02;;;;;;;41.58;24.10;;;;;;;0.39;71.47;102655.38;5076227;28;20044;-71
2023/01/22 00:39:29;;;;;;;46.53;24.35;;;;;;;0.34;72.02;102663.28;5077319;28;20053;-70
2023/01/22 00:41:58;;;;;;;45.55;24.52;;;;;;;0.38;71.88;102670.00;5059749;28;20053;-70
2023/01/22 00:44:25;;;;;;;41.00;21.95;;;;;;;0.30;71.77;102659.28;5076537;28;20055;-70
2023/01/22 00:46:53;;;;;;;44.95;25.05;;;;;;;0.30;72.26;102667.41;5079580;28;20411;-70
2023/01/22 00:49:20;;;;;;;44.05;25.10;;;;;;;0.47;72.34;102662.53;5073855;28;20052;-70
2023/01/22 00:51:48;;;;;;;46.10;25.60;;;;;;;0.76;71.17;102663.09;5074634;28;20044;-71
2023/01/22 00:54:15;;;;;;;48.00;24.73;;;;;;;0.64;71.01;102664.72;5061689;28;20076;-69
2023/01/22 00:56:42;;;;;;;44.08;24.30;;;;;;;0.58;71.09;102668.22;5075976;28;20063;-71
2023/01/22 00:59:10;;;;;;;43.80;24.05;;;;;;;0.61;71.10;102667.00;5077447;28;20056;-70
2023/01/22 01:01:38;;;;;;;47.72;24.63;;;;;;;0.56;70.99;102653.22;5075902;28;20047;-71
2023/01/22 01:04:05;;;;;;;43.22;24.02;;;;;;;0.78;70.62;102652.91;5075846;28;20041;-70
2023/01/22 01:06:33;;;;;;;44.78;24.58;;;;;;;0.68;70.46;102657.03;5074545;28;20290;-70
2023/01/22 01:09:00;;;;;;;48.67;24.50;;;;;;;0.51;71.35;102659.22;5048758;28;20040;-70
2023/01/22 01:11:29;;;;;;;45.42;24.23;;;;;;;0.45;71.29;102651.06;5083915;28;20403;-69
2023/01/22 01:13:56;;;;;;;47.55;25.00;;;;;;;0.41;71.17;102645.19;5076562;28;20044;-71
2023/01/22 01:16:26;;;;;;;45.75;24.83;;;;;;;0.62;70.97;102636.97;5076377;28;20056;-72
2023/01/22 01:19:04;;;;;;;45.25;23.20;;;;;;;0.34;71.54;102638.03;5075471;28;20044;-70
2023/01/22 01:21:31;;;;;;;43.95;23.65;;;;;;;0.49;71.49;102636.88;5072663;28;20049;-70
2023/01/22 01:23:59;;;;;;;43.92;24.38;;;;;;;0.74;70.62;102642.63;5054412;28;20427;-70
2023/01/22 01:26:27;;;;;;;44.58;25.33;;;;;;;0.74;70.04;102651.63;5074825;28;20048;-70
2023/01/22 01:28:55;;;;;;;48.92;25.17;;;;;;;0.72;70.15;102653.69;5075375;28;20055;-70
2023/01/22 01:31:24;;;;;;;44.47;24.27;;;;;;;0.29;70.82;102649.50;5058648;28;20064;-71
2023/01/22 01:33:52;;;;;;;48.50;23.95;;;;;;;0.32;72.15;102645.53;5059316;28;20053;-69
2023/01/22 01:36:23;;;;;;;48.22;25.92;;;;;;;0.29;71.98;102662.19;5072479;28;20061;-70
2023/01/22 01:39:10;;;;;;;46.60;25.75;;;;;;;0.46;71.47;102671.69;5071578;28;20055;-70
2023/01/22 01:41:37;;;;;;;46.50;24.63;;;;;;;0.27;71.48;102672.41;5066802;28;20395;-70
2023/01/22 01:44:13;;;;;;;43.53;25.23;;;;;;;0.35;71.66;102678.50;5058714;28;20045;-69
2023/01/22 01:46:47;;;;;;;44.92;24.77;;;;;;;0.32;71.75;102662.66;5058611;28;20053;-69
2023/01/22 01:49:22;;;;;;;45.38;26.02;;;;;;;0.62;71.11;102665.94;5058662;28;20044;-69
2023/01/22 01:51:51;;;;;;;47.63;26.50;;;;;;;0.47;70.62;102662.53;5067839;28;20048;-69
2023/01/22 01:54:19;;;;;;;53.30;27.63;;;;;;;0.53;70.97;102659.84;5072224;28;20056;-70
2023/01/22 01:56:50;;;;;;;44.45;25.45;;;;;;;0.78;70.61;102662.91;5069608;28;20059;-70
2023/01/22 01:59:20;;;;;;;44.97;23.73;;;;;;;0.58;70.62;102667.38;5074858;28;20427;-70
2023/01/22 02:01:52;;;;;;;47.67;25.40;;;;;;;0.44;70.62;102655.63;5058577;28;20056;-69
2023/01/22 02:04:21;;;;;;;46.03;25.40;;;;;;;0.67;70.97;102647.19;5058665;28;20052;-69
2023/01/22 02:06:48;;;;;;;43.17;23.33;;;;;;;0.48;70.89;102651.50;5064519;28;20049;-70
2023/01/22 02:09:15;;;;;;;47.67;27.85;;;;;;;0.57;70.93;102650.28;5054515;28;20051;-70
2023/01/22 02:11:43;;;;;;;45.72;25.17;;;;;;;0.57;70.77;102653.00;5050218;28;20052;-70
2023/01/22 02:14:17;;;;;;;43.40;24.60;;;;;;;0.51;70.56;102642.94;5070876;28;20656;-70
2023/01/22 02:16:44;;;;;;;44.30;24.63;;;;;;;0.55;70.52;102641.53;5057968;28;20056;-69
2023/01/22 02:19:12;;;;;;;47.35;25.10;;;;;;;0.60;70.51;102649.88;5058247;28;20059;-70
2023/01/22 02:21:41;;;;;;;46.67;25.77;;;;;;;0.42;71.44;102649.56;5074142;28;20049;-71
2023/01/22 02:24:11;;;;;;;48.80;25.92;;;;;;;0.69;70.91;102647.84;5074568;28;20048;-70
2023/01/22 02:26:40;;;;;;;47.08;25.38;;;;;;;0.83;69.82;102660.41;5057627;28;20052;-70
2023/01/22 02:29:10;;;;;;;45.88;24.65;;;;;;;0.89;69.90;102659.63;5056683;28;20048;-70
2023/01/22 02:31:39;;;;;;;44.35;24.15;;;;;;;0.85;69.88;102653.78;5057107;28;20048;-70
2023/01/22 02:34:07;;;;;;;48.15;26.20;;;;;;;0.89;69.78;102649.59;5057371;28;20051;-70
2023/01/22 02:36:36;;;;;;;46.75;27.02;;;;;;;0.98;69.96;102656.50;5069295;28;20057;-70
2023/01/22 02:39:04;;;;;;;49.58;27.00;;;;;;;0.71;70.29;102659.31;5054310;28;20064;-69
2023/01/22 02:41:32;;;;;;;49.53;26.92;;;;;;;0.76;70.37;102657.69;5064666;28;20051;-70
2023/01/22 02:43:59;;;;;;;50.95;27.75;;;;;;;0.50;70.63;102654.00;5046359;28;20381;-70
2023/01/22 02:46:29;;;;;;;47.78;27.48;;;;;;;0.51;70.53;102645.66;5064632;28;20052;-70
2023/01/22 02:48:57;;;;;;;49.72;27.13;;;;;;;0.71;70.62;102646.59;5055686;28;20051;-70
2023/01/22 02:51:25;;;;;;;48.65;27.58;;;;;;;0.74;69.69;102650.78;5030408;28;20052;-69
2023/01/22 02:53:53;;;;;;;51.40;27.23;;;;;;;0.77;69.81;102650.38;5041185;28;20364;-69
2023/01/22 02:56:21;;;;;;;47.13;26.48;;;;;;;0.64;70.36;102640.31;5073755;28;20047;-69
2023/01/22 02:58:49;;;;;;;47.55;27.58;;;;;;;0.71;70.34;102648.47;5041359;28;20404;-69
2023/01/22 03:01:21;;;;;;;51.42;28.70;;;;;;;0.60;70.54;102649.03;5073728;28;20052;-69
2023/01/22 03:03:52;;;;;;;51.58;27.83;;;;;;;0.56;69.75;102669.47;5074395;28;20059;-69
2023/01/22 03:06:22;;;;;;;50.92;28.33;;;;;;;0.45;70.48;102657.31;5073962;28;20061;-69
2023/01/22 03:08:53;;;;;;;53.72;29.05;;;;;;;0.63;69.72;102662.19;5075637;28;20048;-69
2023/01/22 03:11:21;;;;;;;51.70;29.02;;;;;;;0.70;70.73;102657.63;5056461;28;20468;-69
2023/01/22 03:22:14;;;;;;;50.90;30.02;;;;;;;0.98;69.71;102655.66;5073637;28;20044;-70
2023/01/22 03:24:42;;;;;;;50.20;30.30;;;;;;;0.74;69.38;102658.91;5072948;28;20055;-70
2023/01/22 03:27:10;;;;;;;50.50;30.25;;;;;;;0.59;70.22;102650.94;5070290;28;20511;-70
2023/01/22 03:29:37;;;;;;;51.38;28.77;;;;;;;0.52;69.90;102654.63;5074011;28;20056;-70
2023/01/22 03:32:06;;;;;;;52.83;31.20;;;;;;;0.71;69.92;102653.91;5073844;28;20041;-71
2023/01/22 03:34:36;;;;;;;53.25;30.15;;;;;;;0.63;69.19;102659.47;5038700;28;20053;-69
2023/01/22 03:37:06;;;;;;;52.75;30.23;;;;;;;0.72;69.47;102648.28;5069567;28;20049;-71
2023/01/22 03:39:35;;;;;;;52.42;29.92;;;;;;;0.54;69.87;102647.97;5042185;28;20061;-69
2023/01/22 03:42:03;;;;;;;53.90;30.73;;;;;;;0.57;69.84;102642.16;5061804;28;20075;-70
2023/01/22 03:44:31;;;;;;;55.53;31.33;;;;;;;0.97;69.82;102637.72;5057578;28;20049;-68
2023/01/22 03:46:58;;;;;;;52.17;30.20;;;;;;;0.83;68.95;102638.72;5072277;28;20495;-70
2023/01/22 03:49:26;;;;;;;54.63;30.83;;;;;;;0.98;69.13;102642.09;5045260;28;20052;-69
2023/01/22 03:51:54;;;;;;;51.95;30.80;;;;;;;1.01;69.34;102655.28;5077203;28;20526;-69
2023/01/22 03:54:24;;;;;;;49.17;29.40;;;;;;;0.80;68.80;102658.13;5061518;28;20044;-70
2023/01/22 03:56:54;;;;;;;52.70;29.38;;;;;;;0.93;68.94;102655.44;5056883;28;20049;-70
2023/01/22 03:59:31;;;;;;;52.10;29.40;;;;;;;0.75;69.78;102657.91;5057174;28;20052;-70
2023/01/22 04:01:58;;;;;;;52.20;30.95;;;;;;;0.86;69.69;102660.84;5071548;28;20049;-69
2023/01/22 04:04:25;;;;;;;48.85;28.77;;;;;;;0.81;70.07;102655.19;5060899;28;20041;-69
2023/01/22 04:06:53;;;;;;;55.45;30.48;;;;;;;0.89;69.09;102654.19;5060501;28;20436;-69
2023/01/22 04:09:20;;;;;;;50.40;28.25;;;;;;;0.94;69.56;102649.00;5078424;28;20049;-69
2023/01/22 04:11:50;;;;;;;46.50;28.38;;;;;;;0.67;69.75;102649.91;5055741;28;20056;-69
2023/01/22 04:14:18;;;;;;;49.75;28.08;;;;;;;0.57;70.24;102647.59;5057477;28;20052;-69
2023/01/22 04:16:54;;;;;;;48.75;28.55;;;;;;;0.88;69.48;102647.94;5054149;28;20052;-69
2023/01/22 04:19:38;;;;;;;46.40;26.70;;;;;;;0.87;69.05;102640.81;5063176;28;20052;-69
2023/01/22 04:22:15;;;;;;;50.78;27.67;;;;;;;0.90;68.96;102632.28;5061530;28;20048;-70
2023/01/22 04:24:44;;;;;;;48.78;27.50;;;;;;;0.79;69.20;102641.00;5043873;28;20056;-70
2023/01/22 04:27:11;;;;;;;51.33;27.63;;;;;;;0.83;69.00;102645.00;5042236;28;20052;-69
2023/01/22 04:29:39;;;;;;;47.85;25.88;;;;;;;0.90;68.44;102639.59;5077273;28;20055;-69
2023/01/22 04:32:07;;;;;;;46.80;27.08;;;;;;;0.75;68.89;102628.06;5059867;28;20045;-70
2023/01/22 04:34:55;;;;;;;48.45;27.50;;;;;;;0.68;69.89;102641.56;5077098;28;20071;-69
2023/01/22 04:37:35;;;;;;;49.13;26.50;;;;;;;0.63;70.15;102640.50;5059836;28;20049;-69
2023/01/22 04:40:04;;;;;;;50.60;26.80;;;;;;;0.62;70.18;102638.84;5055736;28;20059;-70
2023/01/22 04:42:34;;;;;;;51.72;26.98;;;;;;;0.62;70.15;102634.25;5076186;28;20519;-69
2023/01/22 04:45:02;;;;;;;48.92;27.58;;;;;;;0.60;70.56;102632.78;5076698;28;20052;-69
2023/01/22 04:47:30;;;;;;;48.25;26.88;;;;;;;0.79;69.86;102618.47;5076233;28;20045;-70
2023/01/22 04:49:58;;;;;;;46.53;26.25;;;;;;;0.97;69.18;102626.88;5059649;28;20055;-71
2023/01/22 04:52:25;;;;;;;46.45;25.52;;;;;;;0.99;68.99;102628.34;5075172;28;20045;-69
2023/01/22 04:54:52;;;;;;;47.15;25.10;;;;;;;0.62;69.93;102618.00;5055543;28;20048;-69
2023/01/22 04:57:20;;;;;;;47.60;25.77;;;;;;;0.60;70.23;102616.50;5073711;28;20056;-69
2023/01/22 04:59:49;;;;;;;48.00;25.57;;;;;;;0.81;69.78;102617.22;5060219;28;20055;-70
2023/01/22 05:02:16;;;;;;;43.28;24.38;;;;;;;0.57;69.95;102614.19;5075575;28;20646;-69
2023/01/22 05:04:44;;;;;;;45.08;23.10;;;;;;;0.43;70.13;102607.88;5076327;28;20403;-69
2023/01/22 05:07:12;;;;;;;46.03;24.20;;;;;;;0.79;69.35;102607.59;5075532;28;20065;-70
2023/01/22 05:09:40;;;;;;;39.42;22.50;;;;;;;0.64;69.35;102602.34;5071781;28;20461;-69
2023/01/22 05:12:07;;;;;;;38.90;21.10;;;;;;;0.61;69.23;102608.16;5055667;28;20055;-70
2023/01/22 05:14:39;;;;;;;41.25;21.50;;;;;;;0.75;68.52;102612.59;5076623;28;20060;-69
2023/01/22 05:17:07;;;;;;;38.22;20.23;;;;;;;0.80;68.52;102617.44;5075134;28;20062;-69
2023/01/22 05:19:34;;;;;;;34.45;19.00;;;;;;;0.69;68.75;102618.00;5076476;28;20056;-71
2023/01/22 05:22:05;;;;;;;37.38;19.25;;;;;;;0.68;68.95;102614.44;5075856;28;20067;-70
2023/01/22 05:24:33;;;;;;;38.35;20.13;;;;;;;0.66;68.77;102599.44;5058683;28;20048;-70
2023/01/22 05:27:00;;;;;;;36.38;21.27;;;;;;;0.80;68.56;102598.44;5075333;28;20044;-70
2023/01/22 05:29:33;;;;;;;38.95;20.35;;;;;;;0.74;68.34;102591.97;5043472;28;20057;-69
2023/01/22 05:32:14;;;;;;;;;;;;;;;0.79;68.86;102594.91;5061228;28;20048;-70
2023/01/22 05:34:47;;;;;;;40.00;20.42;;;;;;;0.92;68.78;102602.25;5059378;28;19921;-70
2023/01/22 05:37:14;;;;;;;44.90;22.77;;;;;;;0.98;68.17;102606.84;5075411;28;20056;-69
2023/01/22 05:39:41;;;;;;;40.28;22.30;;;;;;;1.07;67.87;102603.75;5048981;28;20049;-70
2023/01/22 05:42:14;;;;;;;44.17;22.92;;;;;;;0.94;68.02;102606.41;5071491;28;20529;-70
2023/01/22 05:44:44;;;;;;;43.40;22.38;;;;;;;0.84;68.93;102610.53;5075591;28;20048;-69
2023/01/22 05:47:13;;;;;;;40.97;22.05;;;;;;;0.63;69.50;102611.50;5074677;28;20045;-71
2023/01/22 05:50:12;;;;;;;43.47;22.67;;;;;;;0.65;69.95;102604.00;5070544;28;20048;-69
2023/01/22 05:52:40;;;;;;;41.22;21.17;;;;;;;0.54;70.14;102599.16;5058590;28;20127;-69
2023/01/22 05:55:07;;;;;;;43.45;23.65;;;;;;;0.76;70.43;102598.03;5056909;28;20057;-69
2023/01/22 05:57:40;;;;;;;44.28;22.40;;;;;;;0.84;69.13;102595.13;5074898;28;20048;-70
2023/01/22 06:00:09;;;;;;;41.15;21.80;;;;;;;0.66;69.73;102599.44;5059169;28;20045;-70
2023/01/22 06:02:42;;;;;;;37.42;19.45;;;;;;;0.56;69.80;102583.53;5076380;28;20052;-70
2023/01/22 06:05:12;;;;;;;40.80;21.38;;;;;;;0.72;70.41;102594.03;5075082;28;20045;-70
2023/01/22 06:07:41;;;;;;;41.00;22.77;;;;;;;0.87;70.07;102592.00;5074898;28;20045;-70
2023/01/22 06:10:08;;;;;;;40.10;22.58;;;;;;;1.04;69.75;102595.19;5040909;28;20056;-70
2023/01/22 06:12:42;;;;;;;43.33;21.38;;;;;;;0.92;69.54;102602.25;5042106;28;20455;-70
2023/01/22 06:15:10;;;;;;;39.53;21.55;;;;;;;0.94;69.55;102605.59;5041943;28;20422;-69
2023/01/22 06:17:41;;;;;;;40.63;21.75;;;;;;;1.07;69.72;102613.75;5074408;28;20063;-70
2023/01/22 06:20:09;;;;;;;39.80;22.27;;;;;;;1.24;69.30;102611.50;5058641;28;20051;-70
2023/01/22 06:22:37;;;;;;;46.15;23.70;;;;;;;0.84;69.32;102622.25;5074388;28;20052;-71
2023/01/22 06:25:04;;;;;;;41.75;21.83;;;;;;;1.07;69.71;102609.16;5074112;28;20048;-69
2023/01/22 06:27:52;;;;;;;47.90;23.60;;;;;;;1.12;69.72;102606.69;5056007;28;20053;-70
2023/01/22 06:30:19;;;;;;;42.30;23.70;;;;;;;0.97;70.12;102602.47;5055601;28;20053;-69
2023/01/22 06:32:51;;;;;;;42.17;21.02;;;;;;;1.06;69.71;102598.53;5042101;28;20048;-69
2023/01/22 06:35:19;;;;;;;40.25;22.80;;;;;;;1.03;69.59;102602.47;5074274;28;20111;-69
2023/01/22 06:37:48;;;;;;;41.33;23.30;;;;;;;1.25;69.91;102597.72;5056164;28;20044;-71
2023/01/22 06:40:16;;;;;;;44.28;23.65;;;;;;;1.54;68.99;102597.34;5055090;28;20628;-71
2023/01/22 06:42:45;;;;;;;41.80;24.13;;;;;;;1.42;68.73;102593.56;5057580;28;20053;-70
2023/01/22 06:45:13;;;;;;;42.50;23.55;;;;;;;1.09;69.94;102603.53;5074377;28;20415;-71
2023/01/22 06:47:45;;;;;;;45.05;23.38;;;;;;;1.14;69.57;102612.75;5074157;28;20060;-70
2023/01/22 06:50:14;;;;;;;43.43;23.40;;;;;;;1.04;70.84;102611.47;5041451;28;20052;-70
2023/01/22 06:52:41;;;;;;;45.65;24.92;;;;;;;0.76;71.51;102614.28;5070950;28;20048;-70
2023/01/22 06:55:09;;;;;;;48.15;23.30;;;;;;;0.75;71.84;102609.88;5054237;28;20057;-69
2023/01/22 06:57:38;;;;;;;48.85;24.55;;;;;;;0.92;72.09;102616.63;5073580;28;20044;-70
2023/01/22 07:00:06;;;;;;;43.22;23.42;;;;;;;0.87;71.26;102623.72;5074805;28;20388;-69
2023/01/22 07:02:33;;;;;;;42.40;23.75;;;;;;;0.87;71.83;102626.44;5076037;28;20053;-69
2023/01/22 07:05:02;;;;;;;44.15;23.15;;;;;;;0.85;72.05;102631.22;5075458;28;20052;-70
2023/01/22 07:07:29;;;;;;;44.00;23.02;;;;;;;0.61;72.45;102624.44;5053219;28;20049;-68
2023/01/22 07:09:56;;;;;;;42.40;22.95;;;;;;;0.47;74.23;102621.88;5054055;28;20049;-70
2023/01/22 07:12:23;;;;;;;41.95;22.73;;;;;;;0.47;74.68;102624.59;5067711;28;20530;-69
2023/01/22 07:14:51;;;;;;;44.47;24.05;;;;;;;0.48;75.01;102637.94;5053842;28;20704;-69
2023/01/22 07:17:18;;;;;;;44.25;24.40;;;;;;;0.76;73.86;102622.44;5072209;28;20044;-70
2023/01/22 07:19:45;;;;;;;46.50;23.33;;;;;;;0.54;74.39;102637.13;5074281;28;20052;-70
2023/01/22 07:22:13;;;;;;;47.35;24.88;;;;;;;0.72;75.00;102648.28;5075610;28;20064;-70
2023/01/22 07:24:40;;;;;;;46.50;22.90;;;;;;;0.67;74.24;102649.91;5057119;28;20060;-69
2023/01/22 07:27:08;;;;;;;45.53;24.90;;;;;;;0.70;75.00;102644.06;5072498;28;20045;-70
2023/01/22 07:29:35;;;;;;;51.50;25.23;;;;;;;0.75;74.79;102647.84;5074087;28;20071;-70
2023/01/22 07:32:02;;;;;;;47.88;24.95;;;;;;;0.69;75.15;102654.09;5073867;28;20060;-69
2023/01/22 07:34:30;;;;;;;45.67;24.58;;;;;;;0.68;75.13;102660.53;5063879;28;20076;-70
2023/01/22 07:37:00;;;;;;;46.88;24.02;;;;;;;0.83;74.30;102663.13;5050923;28;20052;-70
2023/01/22 07:39:28;;;;;;;49.33;25.48;;;;;;;0.67;75.69;102658.03;5057000;28;20488;-69
2023/01/22 07:41:59;;;;;;;49.10;25.20;;;;;;;0.90;74.65;102670.28;5073611;28;20053;-70
2023/01/22 07:44:29;;;;;;;50.42;25.58;;;;;;;0.63;74.92;102657.59;5074140;28;20044;-70
2023/01/22 07:46:57;;;;;;;45.70;24.25;;;;;;;0.83;75.01;102665.84;5073380;28;20050;-69
2023/01/22 07:49:24;;;;;;;43.30;23.02;;;;;;;0.96;74.63;102663.16;5063146;28;20053;-70
2023/01/22 07:51:52;;;;;;;48.78;25.30;;;;;;;0.71;75.10;102664.75;5050900;28;20534;-69
2023/01/22 07:54:19;;;;;;;46.00;22.98;;;;;;;0.81;74.66;102666.06;5073835;28;20518;-69
2023/01/22 07:56:46;;;;;;;46.53;23.67;;;;;;;0.74;75.43;102661.63;5074524;28;20043;-71
2023/01/22 07:59:14;;;;;;;39.38;22.13;;;;;;;0.97;74.43;102654.84;5075095;28;20047;-71
2023/01/22 08:01:41;;;;;;;42.83;22.52;;;;;;;0.81;74.45;102668.75;5056445;28;20053;-70
2023/01/22 08:04:09;;;;;;;43.22;22.98;;;;;;;1.05;74.44;102653.81;5046963;28;20056;-69
2023/01/22 08:06:36;;;;;;;42.88;23.95;;;;;;;1.26;73.40;102663.69;5033576;28;20652;-70
2023/01/22 08:09:05;;;;;;;45.85;22.40;;;;;;;1.14;73.64;102669.72;5074967;28;20052;-71
2023/01/22 08:11:33;;;;;;;44.58;23.02;;;;;;;1.26;73.23;102672.69;5074493;28;20450;-71
2023/01/22 08:14:00;;;;;;;39.40;20.52;;;;;;;1.53;73.89;102673.59;5040603;28;20075;-71
2023/01/22 08:16:28;;;;;;;37.15;20.77;;;;;;;1.49;72.00;102684.03;5074407;28;20044;-72
2023/01/22 08:18:55;;;;;;;38.28;20.85;;;;;;;1.39;73.03;102664.59;5072317;28;20065;-71
2023/01/22 08:21:22;;;;;;;38.40;20.45;;;;;;;1.01;73.81;102682.41;5056232;28;20053;-70
2023/01/22 08:23:50;;;;;;;39.25;21.52;;;;;;;1.15;73.97;102684.16;5073551;28;20057;-70
2023/01/22 08:26:17;;;;;;;38.45;21.02;;;;;;;1.29;73.01;102688.53;5073911;28;20423;-72
2023/01/22 08:28:44;;;;;;;36.20;19.38;;;;;;;1.21;73.39;102685.19;5060419;28;20052;-71
2023/01/22 08:31:12;;;;;;;38.88;18.17;;;;;;;0.97;73.80;102692.84;5076061;28;20483;-71
2023/01/22 08:33:53;;;;;;;37.38;19.80;;;;;;;1.03;74.24;102686.59;5055605;28;20041;-71
2023/01/22 08:36:21;;;;;;;39.08;19.58;;;;;;;1.20;73.58;102695.22;5072038;28;20060;-72
2023/01/22 08:38:49;;;;;;;35.25;18.45;;;;;;;1.07;73.15;102706.84;5075545;28;20628;-72
2023/01/22 08:41:19;;;;;;;36.45;18.98;;;;;;;1.21;72.99;102693.31;5060402;28;20057;-71
2023/01/22 08:43:46;;;;;;;36.45;19.55;;;;;;;1.10;73.45;102694.75;5076741;28;20407;-71
2023/01/22 08:46:13;;;;;;;34.83;18.92;;;;;;;1.02;73.46;102703.06;5077705;28;20491;-71
2023/01/22 08:48:42;;;;;;;38.90;18.98;;;;;;;1.06;73.42;102707.06;5052105;28;20064;-71
2023/01/22 08:51:11;;;;;;;;;;;;;;;0.89;73.95;102703.03;5064884;28;20056;-71
2023/01/22 08:53:38;;;;;;;37.63;19.48;;;;;;;1.12;73.70;102715.22;5058793;28;19939;-72
2023/01/22 08:56:06;;;;;;;38.40;19.60;;;;;;;1.09;73.53;102722.94;5076162;28;20415;-72
2023/01/22 08:58:34;;;;;;;38.67;18.48;;;;;;;1.14;73.79;102710.44;5077642;28;20056;-72
2023/01/22 09:01:01;;;;;;;36.15;18.45;;;;;;;1.13;73.54;102700.59;5076200;28;20487;-71
2023/01/22 09:03:29;;;;;;;37.00;18.15;;;;;;;1.06;73.85;102716.03;5077729;28;20052;-72
2023/01/22 09:05:57;;;;;;;29.50;15.93;;;;;;;1.02;73.34;102709.34;5075582;28;20056;-71
2023/01/22 09:08:25;;;;;;;33.78;16.77;;;;;;;1.21;73.35;102707.75;5064363;28;20052;-71
2023/01/22 09:10:52;;;;;;;33.72;18.17;;;;;;;1.04;73.39;102718.13;5062757;28;20419;-70
2023/01/22 09:13:19;;;;;;;38.60;18.52;;;;;;;1.11;74.10;102707.28;5073412;28;20050;-72
2023/01/22 09:15:47;;;;;;;35.38;18.98;;;;;;;1.30;73.96;102717.38;5065104;28;20053;-73
2023/01/22 09:18:14;;;;;;;36.60;18.83;;;;;;;1.29;73.05;102704.84;5070777;28;20048;-72
2023/01/22 09:20:43;;;;;;;33.97;19.33;;;;;;;1.50;72.73;102703.88;5020826;28;20072;-72
2023/01/22 09:23:11;;;;;;;35.33;17.92;;;;;;;1.24;73.35;102704.59;5068351;28;20484;-71
2023/01/22 09:25:41;;;;;;;32.58;17.52;;;;;;;1.61;73.72;102689.66;5063318;28;20052;-72
2023/01/22 09:28:11;;;;;;;36.78;17.75;;;;;;;1.39;72.57;102701.75;5060525;28;20060;-72
2023/01/22 09:30:39;;;;;;;34.30;17.85;;;;;;;1.52;71.86;102699.88;5068487;28;20067;-71
2023/01/22 09:33:07;;;;;;;35.33;18.92;;;;;;;1.53;72.04;102698.03;5058668;28;20056;-72
2023/01/22 09:35:35;;;;;;;36.45;18.98;;;;;;;1.87;71.50;102708.72;5062567;28;20071;-71
2023/01/22 09:38:04;;;;;;;36.15;18.45;;;;;;;1.79;71.15;102727.94;5069442;28;20045;-71
2023/01/22 09:40:40;;;;;;;33.50;16.88;;;;;;;1.72;71.04;102710.78;5039159;28;20059;-72
2023/01/22 09:43:24;;;;;;;33.03;17.00;;;;;;;1.58;71.30;102717.25;5045279;28;20056;-72
2023/01/22 09:45:56;;;;;;;31.65;16.80;;;;;;;1.58;71.36;102717.25;5042927;28;20052;-72
2023/01/22 09:48:28;;;;;;;34.30;16.40;;;;;;;1.55;71.65;102723.91;5048526;28;20048;-72
2023/01/22 09:50:56;;;;;;;29.98;16.45;;;;;;;1.41;71.68;102718.66;5075150;28;20052;-71
2023/01/22 09:53:23;;;;;;;34.22;17.73;;;;;;;1.49;71.67;102726.63;5067634;28;20056;-71
2023/01/22 09:55:53;;;;;;;32.72;16.58;;;;;;;1.55;72.33;102725.81;5025520;28;20044;-71
2023/01/22 09:58:23;;;;;;;31.30;17.40;;;;;;;1.62;71.67;102726.66;5062166;28;20347;-71
2023/01/22 10:00:53;;;;;;;38.30;18.13;;;;;;;1.57;71.85;102727.25;5068546;28;20079;-72
2023/01/22 10:03:30;;;;;;;33.28;17.63;;;;;;;1.80;71.24;102737.75;5067251;28;21656;-72
2023/01/22 10:06:08;;;;;;;30.98;17.17;;;;;;;1.92;71.41;102736.09;5040838;28;20096;-72
2023/01/22 10:09:17;;;;;;;31.08;17.10;;;;;;;1.65;71.01;102737.94;5058652;28;20048;-72
2023/01/22 10:11:52;;;;;;;31.90;16.75;;;;;;;1.50;72.08;102723.69;5066462;28;20067;-71
2023/01/22 10:14:21;;;;;;;33.00;16.65;;;;;;;1.60;71.84;102729.59;5060265;28;20419;-73
2023/01/22 10:16:49;;;;;;;37.72;19.20;;;;;;;1.63;72.05;102726.47;5063682;28;20517;-72
2023/01/22 10:19:21;;;;;;;34.78;18.33;;;;;;;1.61;72.88;102733.97;5055134;28;20052;-72
2023/01/22 10:21:53;;;;;;;28.83;15.70;;;;;;;1.60;71.76;102732.31;5081814;28;20052;-71
2023/01/22 10:24:21;;;;;;;32.55;17.05;;;;;;;1.51;72.40;102722.66;5063422;28;20053;-71
2023/01/22 10:26:53;;;;;;;30.20;16.45;;;;;;;1.62;72.54;102727.47;5061059;28;20045;-70
2023/01/22 10:29:24;;;;;;;32.75;17.25;;;;;;;1.62;72.14;102718.53;5061908;28;20040;-71
2023/01/22 10:31:55;;;;;;;33.35;16.67;;;;;;;1.94;71.70;102715.84;5069582;28;20569;-72
2023/01/22 10:34:33;;;;;;;32.60;18.35;;;;;;;1.77;72.05;102722.72;5063466;28;20052;-71
2023/01/22 10:37:16;;;;;;;33.90;17.42;;;;;;;1.84;71.75;102720.00;5074039;28;20044;-69
2023/01/22 10:39:46;;;;;;;32.72;16.27;;;;;;;1.56;72.70;102711.19;5063260;28;20055;-69
2023/01/22 10:42:19;;;;;;;28.17;15.20;;;;;;;1.83;71.81;102727.31;5060064;28;20049;-66
2023/01/22 10:44:46;;;;;;;29.40;14.80;;;;;;;1.67;72.02;102716.88;5057111;28;20052;-69
2023/01/22 10:47:21;;;;;;;30.67;15.65;;;;;;;1.71;71.80;102720.00;5064900;28;20044;-72
2023/01/22 10:50:00;;;;;;;29.35;15.48;;;;;;;1.76;71.22;102712.06;5063294;28;20048;-69
2023/01/22 10:52:47;;;;;;;27.30;15.07;;;;;;;1.39;72.34;102710.72;5084016;28;20052;-67
2023/01/22 10:55:29;;;;;;;29.13;14.63;;;;;;;1.46;72.42;102711.59;5055734;28;20408;-67
2023/01/22 10:58:03;;;;;;;30.55;15.93;;;;;;;1.45;72.93;102704.47;5054227;28;20040;-68
2023/01/22 11:00:32;;;;;;;27.65;14.85;;;;;;;1.66;72.27;102715.16;5069869;28;20048;-70
2023/01/22 11:03:22;;;;;;;31.00;15.70;;;;;;;1.35;72.80;102714.88;5070560;28;20048;-71
2023/01/22 11:05:58;;;;;;;28.60;14.90;;;;;;;1.66;73.56;102714.31;5051312;28;20049;-71
2023/01/22 11:08:31;;;;;;;27.73;14.38;;;;;;;2.23;72.26;102707.25;5046327;28;20041;-69
2023/01/22 11:11:07;;;;;;;29.25;13.68;;;;;;;2.10;70.74;102701.00;5070133;28;20044;-71
2023/01/22 11:13:43;;;;;;;27.48;14.93;;;;;;;2.02;70.02;102699.31;5047118;28;20056;-67
2023/01/22 11:16:24;;;;;;;31.15;15.80;;;;;;;1.89;71.02;102704.75;5047995;28;20060;-68
2023/01/22 11:19:11;;;;;;;32.03;15.95;;;;;;;2.11;70.38;102695.34;5059508;28;20041;-67
2023/01/22 11:21:46;;;;;;;29.73;14.05;;;;;;;1.85;70.19;102706.22;5074358;28;20045;-64
2023/01/22 11:24:18;;;;;;;25.90;13.50;;;;;;;1.63;71.46;102691.16;5055960;28;20524;-67
2023/01/22 11:27:18;;;;;;;29.45;15.07;;;;;;;1.58;71.48;102687.38;5046952;28;20048;-67
2023/01/22 11:29:55;;;;;;;28.85;14.68;;;;;;;1.79;71.71;102692.63;5070210;28;20060;-66
2023/01/22 11:32:44;;;;;;;24.67;12.73;;;;;;;1.95;70.92;102687.59;5055749;28;20064;-66
2023/01/22 11:35:11;;;;;;;24.75;13.30;;;;;;;1.70;71.29;102691.16;5057404;28;20479;-68
2023/01/22 11:37:59;;;;;;;26.25;14.05;;;;;;;1.68;71.13;102696.78;5063105;28;20049;-69